createdAt,value
2024-05-09T00:09:17.471Z,9.74
2024-05-09T00:24:19.268Z,9.64
2024-05-09T00:39:21.056Z,9.46
2024-05-09T00:54:23.539Z,9.41
2024-05-09T01:09:26.005Z,9.38
2024-05-09T01:24:27.758Z,9.52
2024-05-09T01:39:29.708Z,9.56
2024-05-09T01:54:31.495Z,9.51
2024-05-09T02:09:34.164Z,9.36
2024-05-09T02:24:35.948Z,9.38
2024-05-09T02:39:37.728Z,9.44
2024-05-09T02:54:39.519Z,9.34
2024-05-09T03:09:46.749Z,9.05
2024-05-09T03:24:48.560Z,9.05
2024-05-09T03:39:50.330Z,9.13
2024-05-09T03:54:52.153Z,9.30
2024-05-09T04:09:54.692Z,9.40
2024-05-09T04:24:56.447Z,9.70
2024-05-09T04:39:58.246Z,10.18
2024-05-09T04:55:00.052Z,10.51
2024-05-09T05:10:04.532Z,11.90
2024-05-09T05:25:07.627Z,12.61
2024-05-09T05:40:14.592Z,13.33
2024-05-09T05:55:19.237Z,14.19
2024-05-09T06:10:25.802Z,14.15
2024-05-09T06:25:32.299Z,14.73
2024-05-09T06:40:37.986Z,14.90
2024-05-09T06:55:41.758Z,15.94
2024-05-09T07:10:44.686Z,16.04
2024-05-09T07:25:47.074Z,16.96
2024-05-09T07:40:49.451Z,17.57
2024-05-09T07:55:51.458Z,18.17
2024-05-09T08:10:53.750Z,18.37
2024-05-09T08:25:55.691Z,19.21
2024-05-09T08:40:57.606Z,18.99
2024-05-09T08:56:02.628Z,19.47
2024-05-09T09:11:04.964Z,19.40
2024-05-09T09:26:08.277Z,19.43
2024-05-09T09:41:13.442Z,20.10
2024-05-09T09:56:18.180Z,19.90
2024-05-09T10:11:22.355Z,20.07
2024-05-09T10:26:34.603Z,20.57
2024-05-09T10:41:38.071Z,20.17
2024-05-09T10:56:41.090Z,20.62
2024-05-09T11:11:43.533Z,20.45
2024-05-09T11:26:45.416Z,20.54
2024-05-09T11:41:47.242Z,20.94
2024-05-09T11:56:49.128Z,20.89
2024-05-09T12:11:51.772Z,20.74
2024-05-09T12:26:53.743Z,21.04
2024-05-09T12:41:55.618Z,21.19
2024-05-09T12:56:57.431Z,20.99
2024-05-09T13:11:59.967Z,20.78
2024-05-09T13:27:01.959Z,21.04
2024-05-09T13:42:03.940Z,21.17
2024-05-09T13:57:06.147Z,21.07
2024-05-09T14:12:11.361Z,20.81
2024-05-09T14:27:13.511Z,21.49
2024-05-09T14:42:15.403Z,21.13
2024-05-09T14:57:17.193Z,21.22
2024-05-09T15:12:19.341Z,21.25
2024-05-09T15:27:21.230Z,20.98
2024-05-09T15:42:23.023Z,21.02
2024-05-09T15:57:25.210Z,20.61
2024-05-09T16:12:27.756Z,20.21
2024-05-09T16:27:29.886Z,19.83
2024-05-09T16:42:32.361Z,19.61
2024-05-09T16:57:34.228Z,19.49
2024-05-09T17:12:36.529Z,19.16
2024-05-09T17:27:38.467Z,18.94
2024-05-09T17:42:40.413Z,18.56
2024-05-09T17:57:42.464Z,18.21
2024-05-09T18:12:45.059Z,17.55
2024-05-09T18:27:47.114Z,17.09
2024-05-09T18:42:49.021Z,16.56
2024-05-09T18:57:50.942Z,16.19
2024-05-09T19:12:53.325Z,15.82
2024-05-09T19:27:55.159Z,15.44
2024-05-09T19:42:57.056Z,15.23
2024-05-09T19:58:00.026Z,14.87
2024-05-09T20:13:04.308Z,14.37
2024-05-09T20:28:06.925Z,14.15
2024-05-09T20:43:10.338Z,13.73
2024-05-09T20:58:13.420Z,13.31
2024-05-09T21:13:15.808Z,12.88
2024-05-09T21:28:17.745Z,12.66
2024-05-09T21:43:19.785Z,12.49
2024-05-09T21:58:21.848Z,12.33
2024-05-09T22:13:24.849Z,11.94
2024-05-09T22:28:26.886Z,11.84
2024-05-09T22:43:28.905Z,11.61
2024-05-09T22:58:30.905Z,11.35
2024-05-09T23:13:35.836Z,11.18
2024-05-09T23:28:37.749Z,11.06
2024-05-09T23:43:40.784Z,10.88
2024-05-09T23:58:42.860Z,10.65
